Time;durP1;ratioP1;P1;durP2;ratioP2;P2;SDS_P1;SDS_P2;PMS_P1;PMS_P2;Temp;Humidity;BMP_temperature;BMP_pressure;BME280_temperature;BME280_humidity;BME280_pressure;Samples;Min_cycle;Max_cycle;Signal;HPM_P1;HPM_P2
2023/05/31 00:00:08;;;;;;;3.30;1.77;;;;;;;17.73;54.25;98425.31;4180616;28;21321;-90
2023/05/31 00:02:12;;;;;;;2.97;1.80;;;;;;;17.80;54.65;98434.34;4199240;28;20689;-89
2023/05/31 00:04:16;;;;;;;2.07;1.60;;;;;;;17.81;54.50;98435.19;4198458;28;20966;-90
2023/05/31 00:06:19;;;;;;;2.43;1.70;;;;;;;17.74;55.41;98434.91;4185169;28;20671;-90
2023/05/31 00:08:22;;;;;;;2.60;1.43;;;;;;;17.71;55.20;98427.28;4185374;28;20957;-89
2023/05/31 00:10:25;;;;;;;4.50;1.87;;;;;;;17.64;55.39;98425.34;4192402;28;20649;-89
2023/05/31 00:12:28;;;;;;;2.97;1.70;;;;;;;17.61;55.33;98423.81;4189563;28;20749;-90
2023/05/31 00:14:31;;;;;;;2.83;1.57;;;;;;;17.60;55.49;98424.78;4186264;28;21086;-89
2023/05/31 00:16:34;;;;;;;4.80;1.77;;;;;;;17.59;55.78;98431.03;4192280;28;20653;-89
2023/05/31 00:18:42;;;;;;;3.50;1.87;;;;;;;17.62;55.30;98432.53;4176677;28;20880;-91
2023/05/31 00:20:46;;;;;;;2.70;1.67;;;;;;;17.57;55.49;98437.41;4199701;28;20631;-89
2023/05/31 00:22:49;;;;;;;3.63;1.80;;;;;;;17.57;55.58;98432.97;4198843;28;20628;-89
2023/05/31 00:24:52;;;;;;;2.90;1.80;;;;;;;17.56;54.74;98428.69;4189527;28;20713;-89
2023/05/31 00:26:56;;;;;;;3.47;1.50;;;;;;;17.52;55.33;98448.38;4182022;28;21216;-89
2023/05/31 00:28:59;;;;;;;3.93;1.90;;;;;;;17.52;55.04;98426.44;4185161;28;20736;-89
2023/05/31 00:31:03;;;;;;;6.83;2.10;;;;;;;17.50;56.09;98431.03;4201587;28;20733;-90
2023/05/31 00:33:06;;;;;;;2.90;1.60;;;;;;;17.53;54.97;98436.88;4197450;28;20631;-91
2023/05/31 00:35:11;;;;;;;2.47;1.50;;;;;;;17.52;55.70;98432.56;4165204;28;20693;-90
2023/05/31 00:37:14;;;;;;;3.13;1.60;;;;;;;17.49;54.90;98443.38;4179002;28;20684;-90
2023/05/31 00:39:18;;;;;;;3.40;1.70;;;;;;;17.46;55.71;98436.75;4181844;28;20730;-90
2023/05/31 00:41:23;;;;;;;2.03;1.30;;;;;;;17.45;54.75;98435.06;4187112;28;20628;-93
2023/05/31 00:43:26;;;;;;;3.17;1.53;;;;;;;17.43;55.89;98442.28;4187138;28;21080;-91
2023/05/31 00:45:29;;;;;;;3.20;2.10;;;;;;;17.38;54.96;98433.94;4177117;28;21028;-90
2023/05/31 00:47:33;;;;;;;2.57;1.77;;;;;;;17.39;55.09;98432.97;4173738;28;20643;-90
2023/05/31 00:49:36;;;;;;;3.47;1.80;;;;;;;17.45;55.94;98432.41;4192802;28;20635;-91
2023/05/31 00:51:40;;;;;;;2.60;1.60;;;;;;;17.39;56.42;98428.53;4188133;28;21233;-91
2023/05/31 00:53:44;;;;;;;2.80;1.70;;;;;;;17.35;55.77;98428.94;4193145;28;20691;-91
2023/05/31 00:55:47;;;;;;;2.23;1.50;;;;;;;17.41;55.05;98428.38;4171045;28;20674;-91
2023/05/31 00:57:50;;;;;;;2.43;1.50;;;;;;;17.32;55.09;98430.06;4202690;28;20779;-91
2023/05/31 00:59:54;;;;;;;4.27;1.80;;;;;;;17.26;55.65;98433.25;4188174;28;20647;-90
2023/05/31 01:01:58;;;;;;;4.30;1.87;;;;;;;17.26;56.64;98424.47;4192966;28;20637;-91
2023/05/31 01:04:02;;;;;;;2.53;1.50;;;;;;;17.28;55.42;98427.84;4203042;28;20734;-91
2023/05/31 01:06:08;;;;;;;3.50;2.17;;;;;;;17.20;56.78;98417.09;4183947;28;20673;-89
2023/05/31 01:08:14;;;;;;;2.83;1.50;;;;;;;17.19;56.03;98418.09;4177931;28;20752;-90
2023/05/31 01:10:17;;;;;;;2.17;1.53;;;;;;;17.19;54.94;98424.19;4188811;28;20629;-90
2023/05/31 01:12:26;;;;;;;2.43;1.37;;;;;;;17.19;56.20;98420.72;4184466;28;20633;-90
2023/05/31 01:14:37;;;;;;;3.00;1.50;;;;;;;17.19;55.49;98408.34;4169964;28;20640;-91
2023/05/31 01:16:45;;;;;;;2.57;1.60;;;;;;;17.14;56.44;98407.94;4171894;28;21168;-90
2023/05/31 01:18:54;;;;;;;2.97;1.80;;;;;;;17.15;56.70;98406.94;4168574;28;21280;-90
2023/05/31 01:20:58;;;;;;;1.90;1.30;;;;;;;17.12;55.63;98411.69;4189384;28;20686;-90
2023/05/31 01:23:06;;;;;;;4.37;2.00;;;;;;;17.18;55.69;98416.41;4200404;28;20995;-90
2023/05/31 01:25:24;;;;;;;4.13;2.77;;;;;;;17.17;56.81;98410.31;4195181;28;21189;-91
2023/05/31 01:27:30;;;;;;;2.43;1.60;;;;;;;17.07;55.87;98419.16;4181693;28;20628;-90
2023/05/31 01:29:35;;;;;;;2.57;1.63;;;;;;;17.03;56.70;98423.03;4186096;28;21243;-91
2023/05/31 01:31:39;;;;;;;3.67;2.00;;;;;;;17.03;56.24;98412.50;4192773;28;20702;-90
2023/05/31 01:33:43;;;;;;;2.97;1.80;;;;;;;17.04;56.86;98419.44;4174796;28;20673;-89
2023/05/31 01:35:46;;;;;;;5.30;1.70;;;;;;;17.05;55.61;98423.75;4187974;28;20637;-89
2023/05/31 01:37:49;;;;;;;2.50;1.60;;;;;;;17.07;57.05;98429.72;4188016;28;20751;-90
2023/05/31 01:39:52;;;;;;;4.03;1.87;;;;;;;17.04;55.77;98422.91;4175291;28;20687;-89
2023/05/31 01:41:56;;;;;;;3.20;1.80;;;;;;;17.01;54.98;98435.53;4185860;28;20673;-91
2023/05/31 01:44:01;;;;;;;3.13;1.50;;;;;;;16.98;55.45;98436.63;4184237;28;21005;-89
2023/05/31 01:46:04;;;;;;;5.77;1.87;;;;;;;17.04;55.01;98430.81;4173623;28;20680;-90
2023/05/31 01:48:09;;;;;;;7.13;1.80;;;;;;;17.08;56.75;98429.59;4170259;28;22719;-90
2023/05/31 01:50:14;;;;;;;3.20;1.67;;;;;;;17.03;55.59;98434.44;4193557;28;20816;-89
2023/05/31 01:52:18;;;;;;;4.10;1.60;;;;;;;17.00;56.26;98425.94;4201013;28;21233;-90
2023/05/31 01:54:21;;;;;;;3.17;1.80;;;;;;;17.04;56.30;98433.44;4184113;28;20638;-91
2023/05/31 01:56:25;;;;;;;2.83;1.50;;;;;;;16.99;56.67;98426.94;4180651;28;20626;-90
2023/05/31 01:58:31;;;;;;;2.97;1.57;;;;;;;17.01;56.20;98440.81;4195748;28;21191;-90
2023/05/31 02:00:36;;;;;;;3.20;1.70;;;;;;;16.96;56.94;98421.94;4185248;28;20646;-90
2023/05/31 02:02:40;;;;;;;2.23;1.50;;;;;;;16.97;55.74;98433.31;4195606;28;21037;-90
2023/05/31 02:04:44;;;;;;;2.93;1.60;;;;;;;16.94;56.60;98433.56;4185038;28;20643;-91
2023/05/31 02:06:47;;;;;;;2.83;1.93;;;;;;;16.91;56.14;98441.75;4183807;28;20658;-91
2023/05/31 02:08:50;;;;;;;2.90;1.70;;;;;;;16.95;57.67;98437.88;4191717;28;20652;-90
2023/05/31 02:10:54;;;;;;;3.37;1.57;;;;;;;16.92;56.85;98438.97;4187119;28;20627;-91
2023/05/31 02:12:57;;;;;;;3.37;1.70;;;;;;;16.95;57.08;98443.16;4202222;28;20635;-90
2023/05/31 02:15:01;;;;;;;3.10;1.50;;;;;;;16.91;57.46;98445.19;4201725;28;20642;-90
2023/05/31 02:17:06;;;;;;;3.10;1.80;;;;;;;16.94;55.68;98444.94;4187628;28;20655;-91
2023/05/31 02:19:13;;;;;;;4.63;1.60;;;;;;;16.89;55.12;98441.06;4193185;28;20809;-90
2023/05/31 02:21:16;;;;;;;3.17;1.33;;;;;;;16.85;57.55;98437.84;4187332;28;20738;-90
2023/05/31 02:23:21;;;;;;;3.83;1.70;;;;;;;16.84;57.19;98433.56;4198451;28;20680;-90
2023/05/31 02:25:25;;;;;;;5.20;1.93;;;;;;;16.83;55.68;98434.50;4195408;28;20633;-89
2023/05/31 02:27:29;;;;;;;2.73;1.83;;;;;;;16.77;57.21;98429.78;4199352;28;20730;-90
2023/05/31 02:29:32;;;;;;;3.23;1.70;;;;;;;16.78;56.03;98449.91;4197425;28;20636;-90
2023/05/31 02:31:36;;;;;;;2.50;1.20;;;;;;;16.78;57.85;98443.78;4195271;28;20985;-90
2023/05/31 02:33:41;;;;;;;3.30;1.80;;;;;;;16.81;55.49;98438.25;4196651;28;22446;-90
2023/05/31 02:35:44;;;;;;;2.07;1.50;;;;;;;16.75;55.66;98428.28;4197889;28;20690;-91
2023/05/31 02:37:47;;;;;;;2.63;1.73;;;;;;;16.76;56.56;98430.72;4200732;28;20691;-90
2023/05/31 02:39:53;;;;;;;3.10;1.60;;;;;;;16.73;57.13;98430.19;4183627;28;22202;-90
2023/05/31 02:41:56;;;;;;;3.10;1.93;;;;;;;16.68;55.71;98427.13;4191205;28;20614;-90
2023/05/31 02:43:59;;;;;;;4.93;1.83;;;;;;;16.65;56.72;98425.56;4177622;28;20700;-89
2023/05/31 02:46:02;;;;;;;3.10;1.70;;;;;;;16.69;56.26;98434.88;4195105;28;20650;-89
2023/05/31 02:48:07;;;;;;;2.13;1.37;;;;;;;16.69;57.06;98440.16;4185934;28;20634;-89
2023/05/31 02:50:12;;;;;;;3.60;1.87;;;;;;;16.68;57.53;98429.75;4194574;28;21003;-90
2023/05/31 02:52:30;;;;;;;2.77;1.67;;;;;;;16.64;57.56;98428.34;4179235;28;20672;-90
2023/05/31 02:54:52;;;;;;;4.63;1.90;;;;;;;16.63;56.42;98440.69;4181474;28;20712;-89
2023/05/31 02:57:00;;;;;;;3.03;1.60;;;;;;;16.65;57.72;98427.38;4194793;28;20620;-90
2023/05/31 02:59:08;;;;;;;3.70;2.20;;;;;;;16.63;55.80;98429.34;4194843;28;20674;-90
2023/05/31 03:01:14;;;;;;;2.77;1.50;;;;;;;16.58;nan;98421.84;4194811;28;21177;-89
2023/05/31 03:03:37;;;;;;;3.43;1.83;;;;;;;16.55;57.77;98432.63;4196621;28;20723;-90
2023/05/31 03:05:54;;;;;;;2.87;1.50;;;;;;;16.53;58.36;98433.72;4188147;28;20650;-89
2023/05/31 03:07:57;;;;;;;3.00;1.83;;;;;;;16.56;55.61;98431.66;4186903;28;20661;-90
2023/05/31 03:10:00;;;;;;;5.20;1.50;;;;;;;16.55;56.84;98427.38;4185882;28;20751;-90
2023/05/31 03:12:05;;;;;;;2.97;2.03;;;;;;;16.56;58.06;98428.19;4188521;28;21198;-90
2023/05/31 03:14:09;;;;;;;3.80;1.73;;;;;;;16.54;55.92;98422.22;4208727;28;20657;-90
2023/05/31 03:16:24;;;;;;;3.10;1.67;;;;;;;16.50;58.06;98426.91;4187943;28;20635;-90
2023/05/31 03:18:28;;;;;;;3.63;1.90;;;;;;;16.51;57.09;98431.22;4195713;28;21288;-90
2023/05/31 03:20:32;;;;;;;4.37;2.10;;;;;;;16.49;57.32;98439.38;4186312;28;20635;-90
2023/05/31 03:22:37;;;;;;;2.90;1.40;;;;;;;16.46;55.80;98439.66;4188992;28;20645;-89
2023/05/31 03:24:41;;;;;;;2.47;1.73;;;;;;;16.45;56.27;98435.34;4195080;28;20688;-90
2023/05/31 03:26:44;;;;;;;2.77;1.90;;;;;;;16.47;57.49;98428.16;4194185;28;22062;-90
2023/05/31 03:28:47;;;;;;;3.77;1.97;;;;;;;16.42;57.39;98433.81;4190501;28;20645;-91
2023/05/31 03:30:50;;;;;;;3.40;1.87;;;;;;;16.43;57.69;98434.66;4190131;28;21058;-89
2023/05/31 03:32:54;;;;;;;2.67;1.70;;;;;;;16.43;56.80;98438.09;4202876;28;20709;-90
2023/05/31 03:34:57;;;;;;;2.50;1.57;;;;;;;16.39;57.05;98431.44;4204500;28;21216;-90
2023/05/31 03:37:00;;;;;;;2.50;1.70;;;;;;;16.38;57.39;98431.59;4179921;28;20677;-90
2023/05/31 03:39:20;;;;;;;2.50;1.90;;;;;;;16.38;56.15;98432.41;4186529;28;20624;-90
2023/05/31 03:41:24;;;;;;;3.27;1.70;;;;;;;16.37;56.06;98427.28;4182087;28;20661;-90
2023/05/31 03:43:30;;;;;;;4.40;1.90;;;;;;;16.33;58.25;98436.41;4199032;28;21221;-89
2023/05/31 03:45:33;;;;;;;3.90;2.00;;;;;;;16.32;57.52;98440.00;4201171;28;21141;-90
2023/05/31 03:47:37;;;;;;;3.03;1.70;;;;;;;16.33;56.73;98436.41;4200879;28;21194;-90
2023/05/31 03:49:40;;;;;;;2.67;1.67;;;;;;;16.35;57.57;98439.75;4184566;28;20647;-90
2023/05/31 03:51:44;;;;;;;4.30;1.73;;;;;;;16.36;57.28;98444.06;4189751;28;21200;-90
2023/05/31 03:53:48;;;;;;;4.40;1.47;;;;;;;16.42;56.27;98435.59;4189385;28;20636;-89
2023/05/31 03:55:54;;;;;;;4.80;1.93;;;;;;;16.39;57.79;98444.63;4185405;28;20705;-90
2023/05/31 03:57:57;;;;;;;3.43;2.10;;;;;;;16.35;56.37;98437.09;4207319;28;20759;-88
2023/05/31 04:00:01;;;;;;;4.83;2.43;;;;;;;16.38;56.50;98436.84;4180698;28;20662;-90
2023/05/31 04:02:06;;;;;;;2.97;1.80;;;;;;;16.36;56.71;98449.31;4199591;28;20626;-87
2023/05/31 04:04:09;;;;;;;3.23;1.73;;;;;;;16.31;58.22;98440.97;4198550;28;20718;-89
2023/05/31 04:06:12;;;;;;;5.43;2.20;;;;;;;16.27;58.55;98439.56;4190753;28;20745;-88
2023/05/31 04:08:15;;;;;;;3.50;2.27;;;;;;;16.25;56.55;98439.72;4195765;28;20639;-90
2023/05/31 04:10:20;;;;;;;3.47;1.90;;;;;;;16.24;58.50;98439.84;4182843;28;20646;-89
2023/05/31 04:12:25;;;;;;;3.70;1.77;;;;;;;16.29;58.58;98442.91;4196818;28;21201;-90
2023/05/31 04:14:28;;;;;;;2.67;1.73;;;;;;;16.27;58.65;98445.66;4194365;28;20695;-89
2023/05/31 04:16:34;;;;;;;3.60;1.80;;;;;;;16.27;58.99;98439.56;4187066;28;20648;-89
2023/05/31 04:18:37;;;;;;;3.57;1.90;;;;;;;16.30;58.00;98455.94;4200101;28;21236;-90
2023/05/31 04:20:40;;;;;;;3.23;1.83;;;;;;;16.30;58.00;98463.00;4186621;28;20649;-89
2023/05/31 04:22:44;;;;;;;4.30;1.90;;;;;;;16.33;58.08;98463.56;4197834;28;20730;-90
2023/05/31 04:24:47;;;;;;;2.30;1.50;;;;;;;16.32;58.44;98456.63;4188157;28;21289;-89
2023/05/31 04:26:54;;;;;;;3.10;1.60;;;;;;;16.38;57.94;98452.66;4197318;28;20678;-88
2023/05/31 04:29:00;;;;;;;4.30;2.07;;;;;;;16.36;59.12;98454.59;4216715;28;20715;-87
2023/05/31 04:31:04;;;;;;;4.27;1.80;;;;;;;16.37;58.87;98466.75;4216021;28;20639;-89
2023/05/31 04:33:07;;;;;;;3.73;2.00;;;;;;;16.36;57.66;98473.03;4182600;28;20703;-89
2023/05/31 04:35:11;;;;;;;3.00;1.67;;;;;;;16.34;58.03;98464.38;4182014;28;20683;-89
2023/05/31 04:37:19;;;;;;;4.63;2.33;;;;;;;16.37;57.42;98464.13;4196696;28;20641;-89
2023/05/31 04:39:23;;;;;;;3.60;2.00;;;;;;;16.35;57.49;98468.72;4186804;28;20664;-89
2023/05/31 04:41:30;;;;;;;2.93;2.03;;;;;;;16.39;58.10;98470.09;4184656;28;20617;-90
2023/05/31 04:43:33;;;;;;;3.87;1.90;;;;;;;16.33;59.53;98468.00;4187337;28;20682;-90
2023/05/31 04:45:37;;;;;;;4.40;1.70;;;;;;;16.39;57.88;98473.56;4183589;28;20640;-90
2023/05/31 04:47:41;;;;;;;4.33;1.70;;;;;;;16.46;58.48;98473.88;4190689;28;20639;-90
2023/05/31 04:49:45;;;;;;;3.63;2.50;;;;;;;16.45;57.54;98474.84;4180986;28;21281;-90
2023/05/31 04:51:59;;;;;;;3.80;1.87;;;;;;;16.48;59.09;98466.66;4199192;28;21073;-90
2023/05/31 04:54:03;;;;;;;3.80;2.20;;;;;;;16.44;58.34;98465.28;4183076;28;20638;-91
2023/05/31 04:56:09;;;;;;;6.33;1.97;;;;;;;16.46;60.14;98473.88;4213728;28;20751;-89
2023/05/31 04:58:13;;;;;;;2.90;1.70;;;;;;;16.44;58.57;98474.00;4190210;28;21083;-89
2023/05/31 05:00:17;;;;;;;3.30;1.50;;;;;;;16.50;59.76;98473.50;4183468;28;20696;-89
2023/05/31 05:02:33;;;;;;;2.97;2.17;;;;;;;16.51;59.29;98472.53;4187511;28;20689;-89
2023/05/31 05:04:38;;;;;;;3.17;1.73;;;;;;;16.53;58.88;98474.03;4168344;28;21709;-88
2023/05/31 05:06:41;;;;;;;4.10;1.80;;;;;;;16.57;57.98;98483.38;4198641;28;20674;-86
2023/05/31 05:08:45;;;;;;;3.43;1.90;;;;;;;16.62;59.03;98482.97;4184199;28;20652;-86
2023/05/31 05:10:50;;;;;;;2.20;1.60;;;;;;;16.64;59.79;98488.94;4180420;28;21312;-86
2023/05/31 05:12:53;;;;;;;3.90;1.87;;;;;;;16.68;59.07;98487.72;4193408;28;20638;-85
2023/05/31 05:14:56;;;;;;;3.83;2.07;;;;;;;16.71;58.99;98492.72;4199072;28;20627;-85
2023/05/31 05:17:00;;;;;;;2.67;2.10;;;;;;;16.72;59.42;98497.84;4199551;28;21531;-88
2023/05/31 05:19:04;;;;;;;2.60;1.90;;;;;;;16.77;59.65;98489.56;4196429;28;20637;-85
2023/05/31 05:21:09;;;;;;;4.00;1.67;;;;;;;16.85;58.40;98500.25;4188749;28;20641;-86
2023/05/31 05:23:14;;;;;;;4.10;2.00;;;;;;;16.91;58.95;98497.91;4176810;28;20656;-85
2023/05/31 05:25:18;;;;;;;2.97;1.80;;;;;;;16.96;58.12;98501.00;4197433;28;20628;-85
2023/05/31 05:27:22;;;;;;;3.13;2.20;;;;;;;17.02;59.14;98498.66;4180213;28;20617;-85
2023/05/31 05:29:25;;;;;;;3.07;1.67;;;;;;;17.08;59.40;98499.94;4193519;28;20620;-85
2023/05/31 05:31:28;;;;;;;3.30;1.97;;;;;;;17.17;58.78;98504.38;4197721;28;20638;-86
2023/05/31 05:33:35;;;;;;;3.93;2.20;;;;;;;17.26;57.89;98508.84;4200790;28;20731;-85
2023/05/31 05:35:41;;;;;;;4.17;2.23;;;;;;;17.39;57.88;98517.38;4181873;28;20639;-87
2023/05/31 05:37:44;;;;;;;2.67;1.87;;;;;;;17.45;58.09;98508.91;4196665;28;20644;-87
2023/05/31 05:39:48;;;;;;;3.30;2.00;;;;;;;17.60;58.90;98509.19;4193408;28;20721;-85
2023/05/31 05:41:51;;;;;;;2.17;1.50;;;;;;;17.90;57.88;98519.63;4197932;28;20642;-85
2023/05/31 05:43:54;;;;;;;6.97;2.17;;;;;;;18.21;57.81;98526.47;4191136;28;20645;-85
2023/05/31 05:45:57;;;;;;;5.13;2.10;;;;;;;18.51;57.14;98540.31;4186147;28;20631;-84
2023/05/31 05:48:00;;;;;;;4.10;2.00;;;;;;;18.72;56.33;98541.78;4194324;28;20639;-84
2023/05/31 05:50:06;;;;;;;8.47;2.27;;;;;;;18.95;56.25;98548.38;4180050;28;20632;-84
2023/05/31 05:52:11;;;;;;;4.07;2.73;;;;;;;19.21;55.87;98544.94;4177904;28;20803;-85
2023/05/31 05:54:14;;;;;;;3.73;2.20;;;;;;;19.44;55.74;98557.63;4195219;28;20653;-85
2023/05/31 05:56:18;;;;;;;4.93;2.13;;;;;;;19.67;55.36;98542.19;4185822;28;20717;-85
2023/05/31 05:58:31;;;;;;;3.33;2.10;;;;;;;19.94;54.04;98558.88;4203355;28;20638;-85
2023/05/31 06:00:53;;;;;;;3.60;2.27;;;;;;;20.21;54.54;98564.09;4192360;28;20611;-84
2023/05/31 06:02:56;;;;;;;3.47;1.90;;;;;;;20.38;54.04;98556.09;4209417;28;20632;-84
2023/05/31 06:05:00;;;;;;;2.83;1.87;;;;;;;20.53;53.80;98560.69;4192744;28;20650;-85
2023/05/31 06:07:03;;;;;;;4.00;2.20;;;;;;;20.75;54.31;98556.72;4194357;28;20717;-85
2023/05/31 06:09:08;;;;;;;6.13;3.20;;;;;;;20.77;51.64;98560.06;4211871;28;20624;-84
2023/05/31 06:11:11;;;;;;;3.20;1.87;;;;;;;20.93;53.32;98561.84;4204028;28;20637;-85
2023/05/31 06:13:15;;;;;;;3.20;2.03;;;;;;;20.92;53.19;98562.00;4193744;28;20659;-85
2023/05/31 06:15:18;;;;;;;3.37;2.10;;;;;;;21.22;52.47;98566.81;4196677;28;21234;-84
2023/05/31 06:17:21;;;;;;;2.60;1.80;;;;;;;21.32;51.62;98566.50;4200004;28;20635;-85
2023/05/31 06:19:25;;;;;;;3.60;2.40;;;;;;;21.42;53.03;98566.38;4185436;28;21328;-84
2023/05/31 06:21:28;;;;;;;3.60;2.00;;;;;;;21.70;51.61;98566.03;4198375;28;21249;-84
2023/05/31 06:23:32;;;;;;;2.97;1.93;;;;;;;21.87;51.59;98565.88;4184701;28;20731;-85
2023/05/31 06:25:37;;;;;;;3.07;2.00;;;;;;;22.04;51.65;98564.94;4186427;28;21203;-85
2023/05/31 06:27:41;;;;;;;3.43;1.90;;;;;;;22.17;51.13;98569.75;4200585;28;20660;-85
2023/05/31 06:29:44;;;;;;;2.90;1.90;;;;;;;22.37;51.82;98571.94;4185679;28;20644;-85
2023/05/31 06:32:11;;;;;;;3.27;2.27;;;;;;;22.69;51.56;98586.09;4201968;28;20918;-85
2023/05/31 06:34:18;;;;;;;4.20;2.27;;;;;;;22.87;51.46;98594.72;4187238;28;20688;-85
2023/05/31 06:36:21;;;;;;;3.00;1.90;;;;;;;22.97;50.65;98576.75;4201309;28;20622;-86
2023/05/31 06:38:27;;;;;;;3.07;1.73;;;;;;;22.92;49.85;98571.91;4181131;28;20742;-85
2023/05/31 06:40:30;;;;;;;3.83;2.27;;;;;;;22.89;50.11;98574.09;4194619;28;21285;-86
2023/05/31 06:42:35;;;;;;;3.23;1.70;;;;;;;22.82;50.09;98575.75;4183369;28;20640;-86
2023/05/31 06:45:04;;;;;;;2.97;1.87;;;;;;;23.07;50.68;98580.06;4195049;28;20656;-88
2023/05/31 06:47:34;;;;;;;4.40;2.20;;;;;;;23.11;50.11;98578.72;4198799;28;20992;-86
2023/05/31 06:49:57;;;;;;;3.43;1.90;;;;;;;22.97;50.13;98574.09;4196089;28;20641;-88
2023/05/31 06:52:19;;;;;;;4.47;2.20;;;;;;;23.01;49.75;98578.91;4200912;28;20649;-90
2023/05/31 06:54:41;;;;;;;5.17;2.30;;;;;;;23.13;49.00;98568.75;4199642;28;20981;-85
2023/05/31 06:56:44;;;;;;;3.20;2.10;;;;;;;23.33;50.29;98574.34;4202932;28;21216;-87
2023/05/31 06:58:49;;;;;;;4.30;2.00;;;;;;;23.32;49.79;98575.34;4187216;28;20638;-85
2023/05/31 07:00:53;;;;;;;2.73;1.93;;;;;;;23.58;50.71;98578.56;4183023;28;20649;-86
2023/05/31 07:02:56;;;;;;;3.43;2.03;;;;;;;23.69;49.21;98572.88;4184586;28;21168;-90
2023/05/31 07:05:01;;;;;;;3.30;1.80;;;;;;;23.93;50.02;98576.22;4185715;28;20636;-87
2023/05/31 07:07:06;;;;;;;3.57;1.77;;;;;;;23.98;48.95;98573.88;4200330;28;21222;-87
2023/05/31 07:09:10;;;;;;;3.07;2.17;;;;;;;23.99;48.89;98574.69;4188169;28;21208;-85
2023/05/31 07:11:27;;;;;;;4.93;2.13;;;;;;;24.25;48.85;98573.34;4192481;28;20647;-87
2023/05/31 07:13:31;;;;;;;4.17;2.10;;;;;;;24.55;50.07;98573.31;4210013;28;21204;-88
2023/05/31 07:15:35;;;;;;;5.83;2.00;;;;;;;24.35;48.44;98560.63;4207142;28;20630;-88
2023/05/31 07:17:39;;;;;;;2.50;1.90;;;;;;;24.15;48.61;98562.09;4187731;28;20616;-88
2023/05/31 07:19:46;;;;;;;4.00;1.97;;;;;;;24.18;49.11;98559.91;4203990;28;20757;-88
2023/05/31 07:21:51;;;;;;;3.50;2.30;;;;;;;24.35;49.16;98560.63;4201317;28;20637;-88
2023/05/31 07:23:55;;;;;;;3.90;2.37;;;;;;;24.78;49.42;98572.28;4204486;28;20919;-88
2023/05/31 07:26:00;;;;;;;3.30;2.03;;;;;;;24.73;47.84;98557.78;4201317;28;20992;-89
2023/05/31 07:28:04;;;;;;;3.20;2.17;;;;;;;24.89;48.34;98560.31;4186178;28;20618;-88
2023/05/31 07:30:08;;;;;;;2.83;1.70;;;;;;;25.09;49.11;98561.47;4203723;28;20651;-88
2023/05/31 07:32:13;;;;;;;3.83;1.90;;;;;;;25.39;48.60;98570.13;4200846;28;20623;-89
2023/05/31 07:34:16;;;;;;;4.93;2.17;;;;;;;25.70;48.09;98562.75;4206466;28;21097;-89
2023/05/31 07:36:19;;;;;;;3.27;2.00;;;;;;;25.64;47.34;98569.69;4195811;28;21014;-88
2023/05/31 07:38:22;;;;;;;3.67;2.00;;;;;;;25.52;48.10;98558.81;4202287;28;20638;-87
2023/05/31 07:40:26;;;;;;;3.50;1.90;;;;;;;25.77;47.96;98558.31;4197057;28;20654;-88
2023/05/31 07:42:30;;;;;;;3.20;1.83;;;;;;;26.00;47.27;98567.84;4205241;28;20660;-88
2023/05/31 07:44:34;;;;;;;3.70;2.20;;;;;;;26.23;48.68;98557.81;4192380;28;20643;-89
2023/05/31 07:46:37;;;;;;;3.60;2.07;;;;;;;26.01;46.85;98555.28;4186319;28;21280;-88
2023/05/31 07:48:41;;;;;;;4.63;2.10;;;;;;;25.99;46.27;98546.66;4192756;28;21213;-88
2023/05/31 07:50:45;;;;;;;4.03;2.33;;;;;;;26.02;46.33;98544.41;4198921;28;22510;-88
2023/05/31 07:52:49;;;;;;;2.60;1.77;;;;;;;25.94;46.14;98536.50;4198713;28;21263;-89
2023/05/31 07:54:52;;;;;;;2.80;1.93;;;;;;;25.86;47.17;98530.44;4196191;28;20638;-88
2023/05/31 07:56:55;;;;;;;3.97;2.43;;;;;;;25.84;47.93;98532.47;4186127;28;20667;-88
2023/05/31 07:58:59;;;;;;;3.37;1.80;;;;;;;25.89;46.69;98541.59;4199338;28;21187;-88
2023/05/31 08:01:02;;;;;;;3.07;1.73;;;;;;;26.16;47.07;98533.66;4184015;28;20735;-88
2023/05/31 08:03:05;;;;;;;3.60;2.00;;;;;;;26.52;47.53;98542.47;4198606;28;20701;-88
2023/05/31 08:05:10;;;;;;;4.13;2.13;;;;;;;26.54;45.44;98536.91;4199466;28;20639;-87
2023/05/31 08:07:13;;;;;;;2.57;1.77;;;;;;;26.44;45.76;98537.25;4197590;28;20666;-87
2023/05/31 08:09:17;;;;;;;4.20;2.10;;;;;;;26.45;45.73;98541.59;4199601;28;20728;-87
2023/05/31 08:11:21;;;;;;;4.70;1.90;;;;;;;26.43;46.12;98529.41;4179545;28;20636;-86
2023/05/31 08:13:24;;;;;;;4.97;2.10;;;;;;;26.68;48.18;98536.84;4198503;28;20644;-87
2023/05/31 08:15:27;;;;;;;3.53;2.43;;;;;;;26.86;45.59;98531.81;4193941;28;20636;-86
2023/05/31 08:17:31;;;;;;;3.70;2.00;;;;;;;26.67;46.37;98527.97;4200317;28;20632;-87
2023/05/31 08:19:34;;;;;;;3.37;2.27;;;;;;;26.48;45.17;98527.00;4195166;28;20742;-86
2023/05/31 08:21:39;;;;;;;3.30;2.13;;;;;;;26.63;46.38;98526.72;4196835;28;20713;-86
2023/05/31 08:23:43;;;;;;;3.27;2.10;;;;;;;26.83;46.00;98535.72;4196467;28;20651;-86
2023/05/31 08:25:46;;;;;;;5.37;2.10;;;;;;;26.75;44.69;98525.16;4197034;28;20659;-86
2023/05/31 08:27:50;;;;;;;3.57;2.27;;;;;;;26.55;45.13;98519.84;4205036;28;20734;-86
2023/05/31 08:29:53;;;;;;;4.30;2.30;;;;;;;26.31;45.39;98521.09;4198961;28;20690;-86
2023/05/31 08:31:56;;;;;;;4.93;2.20;;;;;;;26.23;45.83;98513.13;4212005;28;20661;-86
2023/05/31 08:34:00;;;;;;;2.20;1.60;;;;;;;25.96;45.61;98510.41;4187293;28;21188;-86
2023/05/31 08:36:03;;;;;;;3.47;1.80;;;;;;;25.85;44.95;98507.41;4183335;28;20670;-86
2023/05/31 08:38:08;;;;;;;3.67;2.40;;;;;;;25.87;45.43;98518.75;4203471;28;20715;-86
2023/05/31 08:40:13;;;;;;;4.90;2.00;;;;;;;25.89;45.43;98511.34;4197255;28;20642;-86
2023/05/31 08:42:21;;;;;;;3.57;2.10;;;;;;;25.90;44.72;98499.63;4192468;28;21370;-87
2023/05/31 08:44:24;;;;;;;2.90;1.80;;;;;;;25.88;45.36;98501.69;4193015;28;20771;-88
2023/05/31 08:46:28;;;;;;;5.53;2.27;;;;;;;25.86;45.50;98501.03;4193604;28;20643;-89
2023/05/31 08:48:34;;;;;;;2.33;1.70;;;;;;;25.65;45.65;98490.34;4197181;28;20639;-86
2023/05/31 08:50:37;;;;;;;3.20;2.20;;;;;;;25.41;45.28;98487.94;4198801;28;21137;-89
2023/05/31 08:52:41;;;;;;;3.40;1.83;;;;;;;25.36;44.27;98490.34;4202001;28;20655;-89
2023/05/31 08:54:47;;;;;;;3.30;2.13;;;;;;;25.23;44.81;98482.16;4197285;28;20757;-89
2023/05/31 08:56:51;;;;;;;4.60;2.37;;;;;;;25.23;44.94;98492.84;4204976;28;20694;-88
2023/05/31 08:58:54;;;;;;;3.97;2.37;;;;;;;25.38;45.79;98493.66;4195817;28;20639;-88
2023/05/31 09:00:58;;;;;;;3.53;2.30;;;;;;;25.36;46.13;98490.34;4181273;28;20640;-89
2023/05/31 09:03:02;;;;;;;3.43;1.80;;;;;;;25.56;44.70;98495.91;4196045;28;21107;-89
2023/05/31 09:05:10;;;;;;;3.47;1.80;;;;;;;25.59;45.27;98499.88;4182672;28;20668;-89
2023/05/31 09:07:14;;;;;;;2.97;1.97;;;;;;;25.54;45.48;98495.28;4188182;28;20652;-89
2023/05/31 09:09:18;;;;;;;3.33;1.67;;;;;;;25.69;45.11;98494.25;4195204;28;20644;-89
2023/05/31 09:11:23;;;;;;;2.80;1.80;;;;;;;25.92;46.81;98490.41;4187211;28;20674;-88
2023/05/31 09:13:27;;;;;;;3.57;1.90;;;;;;;26.08;46.08;98500.03;4195447;28;21057;-88
2023/05/31 09:15:31;;;;;;;2.67;1.80;;;;;;;26.13;44.92;98491.25;4193753;28;20629;-89
2023/05/31 09:17:35;;;;;;;3.43;2.00;;;;;;;26.29;45.98;98490.19;4181817;28;21049;-89
2023/05/31 09:19:41;;;;;;;5.20;2.20;;;;;;;26.54;45.79;98494.06;4180802;28;20625;-89
2023/05/31 09:21:45;;;;;;;4.63;2.13;;;;;;;26.66;46.08;98491.50;4195731;28;20749;-89
2023/05/31 09:23:53;;;;;;;3.60;2.23;;;;;;;26.76;45.71;98486.66;4185726;28;20727;-88
2023/05/31 09:25:57;;;;;;;3.50;2.17;;;;;;;26.83;46.25;98492.03;4199994;28;21352;-89
2023/05/31 09:28:01;;;;;;;2.70;2.20;;;;;;;26.93;47.06;98497.88;4188042;28;20631;-90
2023/05/31 09:30:06;;;;;;;3.30;2.03;;;;;;;26.77;45.74;98484.78;4199043;28;21270;-88
2023/05/31 09:32:10;;;;;;;3.67;2.40;;;;;;;26.66;44.43;98482.66;4195369;28;21205;-89
2023/05/31 09:34:27;;;;;;;3.57;1.90;;;;;;;26.43;46.56;98483.91;4183643;28;20639;-88
2023/05/31 09:36:34;;;;;;;3.73;2.77;;;;;;;26.38;45.13;98476.47;4183198;28;20702;-88
2023/05/31 09:38:38;;;;;;;4.00;2.20;;;;;;;26.28;45.65;98494.72;4196058;28;20677;-89
2023/05/31 09:40:44;;;;;;;3.33;2.17;;;;;;;26.05;45.17;98476.34;4196176;28;20634;-88
2023/05/31 09:42:48;;;;;;;2.93;1.93;;;;;;;25.73;45.56;98463.47;4194984;28;20659;-88
2023/05/31 09:44:53;;;;;;;2.77;2.07;;;;;;;25.85;45.21;98469.97;4171809;28;20643;-88
2023/05/31 09:46:57;;;;;;;3.40;2.10;;;;;;;25.78;45.22;98469.06;4184553;28;20631;-88
2023/05/31 09:49:03;;;;;;;4.00;2.43;;;;;;;25.65;45.04;98459.06;4194140;28;20644;-88